createdAt,value
2018-04-01T00:00:26.929Z,7.70
2018-04-01T00:05:31.425Z,7.70
2018-04-01T00:10:34.545Z,7.80
2018-04-01T00:15:36.857Z,7.80
2018-04-01T00:20:38.949Z,7.80
2018-04-01T00:25:41.045Z,7.60
2018-04-01T00:30:43.144Z,7.60
2018-04-01T00:35:45.226Z,7.70
2018-04-01T00:40:47.791Z,7.40
2018-04-01T00:45:49.889Z,7.20
2018-04-01T00:50:53.662Z,7.30
2018-04-01T00:55:55.767Z,7.00
2018-04-01T01:00:58.621Z,6.70
2018-04-01T01:06:00.706Z,6.70
2018-04-01T01:11:02.812Z,6.80
2018-04-01T01:16:04.908Z,6.80
2018-04-01T01:21:07.005Z,6.80
2018-04-01T01:26:10.166Z,7.00
2018-04-01T01:31:19.866Z,7.00
2018-04-01T01:36:22.841Z,7.10
2018-04-01T01:41:24.920Z,6.90
2018-04-01T01:46:27.432Z,6.80
2018-04-01T01:51:29.513Z,6.80
2018-04-01T01:56:31.624Z,6.60
2018-04-01T02:01:33.713Z,6.60
2018-04-01T02:06:35.796Z,6.60
2018-04-01T02:11:37.901Z,6.60
2018-04-01T02:16:40.365Z,6.70
2018-04-01T02:21:43.141Z,6.60
2018-04-01T02:26:45.964Z,6.60
2018-04-01T02:31:48.795Z,6.70
2018-04-01T02:36:51.520Z,6.80
2018-04-01T02:41:54.376Z,6.50
2018-04-01T02:46:56.460Z,6.50
2018-04-01T02:51:58.580Z,6.40
2018-04-01T02:57:00.668Z,6.70
2018-04-01T03:02:02.754Z,6.70
2018-04-01T03:07:05.336Z,6.80
2018-04-01T03:12:07.433Z,6.80
2018-04-01T03:17:10.302Z,7.20
2018-04-01T03:22:12.408Z,7.20
2018-04-01T03:27:14.517Z,7.30
2018-04-01T03:32:17.365Z,7.30
2018-04-01T03:37:19.464Z,7.00
2018-04-01T03:42:21.711Z,6.80
2018-04-01T03:47:24.571Z,6.80
2018-04-01T03:52:26.668Z,6.80
2018-04-01T03:57:28.754Z,6.80
2018-04-01T04:02:31.345Z,6.70
2018-04-01T04:07:33.713Z,6.80
2018-04-01T04:12:37.440Z,6.70
2018-04-01T04:17:40.057Z,6.60
2018-04-01T04:22:43.935Z,6.70
2018-04-01T04:27:46.774Z,6.40
2018-04-01T04:32:48.863Z,6.40
2018-04-01T04:37:50.963Z,6.20
2018-04-01T04:42:53.045Z,6.30
2018-04-01T04:47:55.140Z,6.20
2018-04-01T04:52:57.234Z,6.00
2018-04-01T04:57:59.329Z,6.00
2018-04-01T05:03:01.663Z,6.10
2018-04-01T05:08:03.764Z,6.10
2018-04-01T05:13:06.113Z,6.10
2018-04-01T05:18:08.212Z,6.10
2018-04-01T05:23:11.089Z,6.10
2018-04-01T05:28:13.167Z,6.10
2018-04-01T05:33:15.262Z,6.10
2018-04-01T05:38:17.352Z,6.00
2018-04-01T05:43:20.284Z,6.10
2018-04-01T05:48:23.143Z,6.20
2018-04-01T05:53:25.230Z,6.20
2018-04-01T05:58:27.929Z,6.20
2018-04-01T06:03:30.013Z,6.30
2018-04-01T06:08:32.128Z,6.20
2018-04-01T06:13:34.365Z,6.10
2018-04-01T06:18:36.736Z,6.10
2018-04-01T06:23:39.638Z,6.30
2018-04-01T06:28:42.492Z,6.50
2018-04-01T06:33:45.064Z,6.50
2018-04-01T06:38:47.180Z,6.50
2018-04-01T06:43:49.264Z,6.40
2018-04-01T06:48:51.399Z,6.40
2018-04-01T06:53:56.640Z,6.40
2018-04-01T06:58:59.105Z,6.40
2018-04-01T07:04:04.327Z,6.50
2018-04-01T07:09:06.746Z,6.30
2018-04-01T07:14:08.830Z,6.50
2018-04-01T07:19:10.920Z,6.50
2018-04-01T07:24:13.004Z,6.60
2018-04-01T07:29:15.464Z,6.60
2018-04-01T07:34:18.324Z,7.00
2018-04-01T07:39:20.826Z,7.00
2018-04-01T07:44:23.459Z,6.90
2018-04-01T07:49:26.304Z,6.90
2018-04-01T07:54:28.482Z,6.90
2018-04-01T07:59:30.567Z,6.80
2018-04-01T08:04:35.268Z,7.00
2018-04-01T08:09:37.913Z,7.20
2018-04-01T08:14:40.493Z,7.30
2018-04-01T08:19:43.795Z,8.10
2018-04-01T08:24:46.642Z,8.10
2018-04-01T08:29:49.269Z,8.10
2018-04-01T08:34:52.541Z,8.10
2018-04-01T08:39:54.685Z,8.50
2018-04-01T08:44:56.920Z,8.60
2018-04-01T08:49:59.487Z,8.10
2018-04-01T08:55:02.083Z,8.00
2018-04-01T09:00:04.961Z,7.90
2018-04-01T09:05:07.085Z,7.80
2018-04-01T09:10:12.267Z,7.70
2018-04-01T09:15:14.593Z,7.70
2018-04-01T09:20:16.678Z,7.50
2018-04-01T09:25:18.793Z,7.50
2018-04-01T09:30:22.183Z,7.30
2018-04-01T09:35:26.951Z,7.30
2018-04-01T09:40:29.506Z,7.50
2018-04-01T09:45:35.685Z,7.70
2018-04-01T09:50:37.793Z,8.20
2018-04-01T09:55:39.882Z,8.40
2018-04-01T10:00:48.377Z,8.00
2018-04-01T10:05:51.995Z,7.60
2018-04-01T10:10:54.576Z,6.90
2018-04-01T10:15:58.145Z,7.40
2018-04-01T10:21:01.520Z,7.40
2018-04-01T10:26:05.389Z,7.70
2018-04-01T10:31:08.117Z,7.70
2018-04-01T10:36:10.716Z,7.80
2018-04-01T10:41:15.916Z,8.10
2018-04-01T10:46:19.268Z,8.30
2018-04-01T10:51:21.850Z,8.30
2018-04-01T10:56:24.319Z,8.30
2018-04-01T11:01:27.160Z,8.50
2018-04-01T11:06:29.241Z,8.50
2018-04-01T11:11:31.337Z,8.40
2018-04-01T11:16:33.433Z,8.10
2018-04-01T11:21:35.545Z,7.50
2018-04-01T11:26:38.006Z,7.30
2018-04-01T11:31:40.090Z,7.40
2018-04-01T11:36:42.197Z,7.80
2018-04-01T11:41:44.297Z,8.10
2018-04-01T11:46:46.612Z,7.90
2018-04-01T11:51:49.719Z,8.00
2018-04-01T11:56:52.578Z,8.00
2018-04-01T12:01:54.711Z,8.00
2018-04-01T12:06:57.555Z,7.80
2018-04-01T12:11:59.643Z,7.80
2018-04-01T12:17:01.736Z,7.60
2018-04-01T12:22:04.560Z,7.70
2018-04-01T12:27:06.658Z,8.30
2018-04-01T12:32:08.893Z,8.80
2018-04-01T12:37:11.083Z,8.90
2018-04-01T12:42:13.372Z,9.40
2018-04-01T12:47:15.665Z,9.40
2018-04-01T12:52:18.051Z,9.50
2018-04-01T12:57:20.363Z,9.90
2018-04-01T13:02:22.633Z,9.60
2018-04-01T13:07:25.025Z,9.90
2018-04-01T13:12:28.030Z,9.30
2018-04-01T13:17:31.047Z,9.20
2018-04-01T13:22:37.648Z,9.20
2018-04-01T13:27:39.736Z,9.00
2018-04-01T13:32:41.899Z,7.70
2018-04-01T13:37:47.081Z,6.90
2018-04-01T13:42:49.160Z,6.90
2018-04-01T13:47:51.242Z,7.30
2018-04-01T13:52:53.891Z,7.40
2018-04-01T13:57:55.977Z,7.40
2018-04-01T14:02:58.447Z,7.80
2018-04-01T14:08:00.538Z,8.30
2018-04-01T14:13:03.893Z,8.50
2018-04-01T14:18:05.974Z,8.50
2018-04-01T14:23:08.065Z,8.50
2018-04-01T14:28:10.391Z,8.30
2018-04-01T14:33:12.529Z,7.90
2018-04-01T14:38:15.072Z,7.80
2018-04-01T14:43:18.908Z,6.30
2018-04-01T14:48:20.993Z,6.30
2018-04-01T14:53:23.103Z,6.20
2018-04-01T14:58:25.186Z,6.10
2018-04-01T15:03:28.044Z,6.70
2018-04-01T15:08:30.907Z,7.30
2018-04-01T15:13:33.016Z,7.90
2018-04-01T15:18:35.848Z,8.50
2018-04-01T15:23:41.892Z,8.90
2018-04-01T15:28:44.097Z,8.70
2018-04-01T15:33:46.826Z,8.60
2018-04-01T15:38:48.929Z,8.10
2018-04-01T15:43:52.874Z,8.00
2018-04-01T15:48:54.956Z,8.10
2018-04-01T15:53:57.045Z,8.20
2018-04-01T15:58:59.159Z,8.00
2018-04-01T16:04:01.249Z,8.10
2018-04-01T16:09:03.753Z,8.10
2018-04-01T16:14:08.315Z,8.30
2018-04-01T16:19:11.392Z,8.20
2018-04-01T16:24:13.482Z,8.20
2018-04-01T16:29:15.569Z,8.30
2018-04-01T16:34:18.018Z,8.30
2018-04-01T16:39:20.117Z,8.30
2018-04-01T16:44:22.208Z,8.10
2018-04-01T16:49:24.297Z,8.00
2018-04-01T16:54:26.381Z,8.00
2018-04-01T16:59:28.480Z,8.30
2018-04-01T17:04:30.553Z,8.50
2018-04-01T17:09:33.241Z,8.40
2018-04-01T17:14:35.253Z,8.30
2018-04-01T17:19:37.329Z,8.10
2018-04-01T17:24:39.429Z,8.20
2018-04-01T17:29:41.509Z,8.20
2018-04-01T17:34:44.200Z,8.00
2018-04-01T17:39:46.293Z,8.00
2018-04-01T17:44:48.647Z,7.80
2018-04-01T17:49:51.517Z,8.00
2018-04-01T17:54:54.465Z,8.00
2018-04-01T17:59:56.545Z,7.80
2018-04-01T18:04:59.405Z,7.80
2018-04-01T18:10:02.134Z,7.70
2018-04-01T18:15:05.049Z,7.50
2018-04-01T18:20:07.954Z,7.50
2018-04-01T18:25:10.822Z,7.50
2018-04-01T18:30:12.907Z,7.50
2018-04-01T18:35:15.005Z,7.70
2018-04-01T18:40:17.094Z,7.80
2018-04-01T18:45:19.196Z,7.90
2018-04-01T18:50:21.293Z,7.90
2018-04-01T18:55:24.183Z,7.90
2018-04-01T19:00:26.693Z,7.90
2018-04-01T19:05:28.836Z,8.00
2018-04-01T19:10:30.921Z,8.20
2018-04-01T19:15:33.029Z,8.20
2018-04-01T19:20:35.654Z,8.40
2018-04-01T19:25:39.013Z,8.40
2018-04-01T19:30:41.609Z,8.40
2018-04-01T19:35:45.096Z,8.30
2018-04-01T19:40:47.788Z,8.20
2018-04-01T19:45:51.184Z,8.20
2018-04-01T19:50:53.741Z,8.20
2018-04-01T19:55:56.322Z,8.40
2018-04-01T20:01:00.674Z,8.50
2018-04-01T20:06:03.271Z,8.50
2018-04-01T20:11:06.280Z,8.70
2018-04-01T20:16:10.378Z,8.90
2018-04-01T20:21:13.133Z,8.90
2018-04-01T20:26:15.702Z,8.70
2018-04-01T20:31:18.280Z,8.70
2018-04-01T20:36:21.731Z,8.70
2018-04-01T20:41:25.120Z,8.70
2018-04-01T20:46:28.633Z,8.50
2018-04-01T20:51:31.645Z,8.40
2018-04-01T20:56:35.469Z,8.30
2018-04-01T21:01:38.139Z,8.40
2018-04-01T21:06:41.488Z,8.60
2018-04-01T21:11:44.076Z,8.60
2018-04-01T21:16:47.430Z,8.60
2018-04-01T21:21:50.104Z,8.60
2018-04-01T21:26:53.435Z,8.50
2018-04-01T21:31:56.006Z,8.50
2018-04-01T21:36:59.351Z,8.60
2018-04-01T21:42:01.957Z,8.60
2018-04-01T21:47:04.569Z,8.60
2018-04-01T21:52:07.928Z,8.70
2018-04-01T21:57:10.509Z,8.70
2018-04-01T22:02:13.090Z,8.60
2018-04-01T22:07:15.660Z,8.60
2018-04-01T22:12:18.245Z,8.50
2018-04-01T22:17:20.820Z,8.30
2018-04-01T22:22:23.396Z,8.30
2018-04-01T22:27:25.981Z,8.30
2018-04-01T22:32:28.561Z,8.40
2018-04-01T22:37:31.712Z,8.30
2018-04-01T22:42:34.335Z,8.30
2018-04-01T22:47:37.985Z,8.20
2018-04-01T22:52:41.167Z,8.00
2018-04-01T22:57:44.086Z,7.70
2018-04-01T23:02:46.639Z,7.40
2018-04-01T23:07:49.336Z,7.30
2018-04-01T23:12:53.528Z,7.10
2018-04-01T23:17:56.758Z,7.00
2018-04-01T23:23:02.484Z,7.00
2018-04-01T23:28:05.075Z,6.90
2018-04-01T23:33:07.649Z,6.70
2018-04-01T23:38:10.248Z,6.60
2018-04-01T23:43:12.861Z,6.50
2018-04-01T23:48:16.063Z,6.40
2018-04-01T23:53:19.284Z,6.30
2018-04-01T23:58:22.043Z,6.10
